Time;durP1;ratioP1;P1;durP2;ratioP2;P2;SDS_P1;SDS_P2;PMS_P1;PMS_P2;Temp;Humidity;BMP_temperature;BMP_pressure;BME280_temperature;BME280_humidity;BME280_pressure;Samples;Min_cycle;Max_cycle;Signal;HPM_P1;HPM_P2
2021/05/24 00:02:10;;;;;;;5.15;1.80;;;;;;;8.70;45.48;101215.84;5044764;28;20459;-71
2021/05/24 00:04:37;;;;;;;3.60;2.10;;;;;;;8.75;45.30;101211.38;5041718;28;20402;-70
2021/05/24 00:07:03;;;;;;;4.07;1.42;;;;;;;8.66;45.45;101214.19;5042792;28;20049;-66
2021/05/24 00:09:29;;;;;;;4.05;1.20;;;;;;;8.68;44.88;101209.81;5043165;28;20028;-67
2021/05/24 00:11:57;;;;;;;2.45;1.10;;;;;;;8.78;45.03;101206.06;5041837;28;20039;-65
2021/05/24 00:14:25;;;;;;;3.95;1.58;;;;;;;8.80;44.85;101206.88;5043107;28;20033;-69
2021/05/24 00:16:51;;;;;;;6.68;1.75;;;;;;;8.68;44.96;101213.25;5044220;28;20066;-69
2021/05/24 00:19:16;;;;;;;4.60;1.08;;;;;;;8.71;44.97;101199.31;5043435;28;20080;-71
2021/05/24 00:21:42;;;;;;;6.55;1.50;;;;;;;8.91;44.57;101197.03;5043861;28;20517;-68
2021/05/24 00:24:08;;;;;;;2.22;0.95;;;;;;;8.92;44.36;101196.13;5044108;28;20390;-68
2021/05/24 00:26:33;;;;;;;3.45;1.13;;;;;;;8.92;44.48;101193.53;5042873;28;20044;-66
2021/05/24 00:28:59;;;;;;;5.30;0.98;;;;;;;8.82;44.17;101186.00;5044029;28;20025;-65
2021/05/24 00:31:24;;;;;;;4.28;1.65;;;;;;;8.75;44.62;101178.34;5043253;28;20036;-66
2021/05/24 00:33:50;;;;;;;2.38;0.75;;;;;;;8.77;44.27;101173.94;5042089;28;20029;-64
2021/05/24 00:36:16;;;;;;;3.42;1.27;;;;;;;8.88;44.33;101165.84;5042883;28;20032;-65
2021/05/24 00:38:41;;;;;;;2.92;1.30;;;;;;;8.94;43.85;101165.66;5042026;28;20064;-65
2021/05/24 00:41:07;;;;;;;3.65;1.23;;;;;;;8.73;44.62;101161.06;5043054;28;20039;-67
2021/05/24 00:43:34;;;;;;;7.38;2.17;;;;;;;8.78;43.85;101159.16;5043464;28;20489;-67
2021/05/24 00:46:01;;;;;;;3.40;1.23;;;;;;;8.73;44.00;101155.84;5041120;28;20056;-66
2021/05/24 00:48:27;;;;;;;5.13;1.23;;;;;;;8.83;44.30;101149.47;5043091;28;20040;-67
2021/05/24 00:50:52;;;;;;;6.15;1.25;;;;;;;8.65;44.58;101152.53;5043996;28;20037;-66
2021/05/24 00:53:20;;;;;;;1.40;0.70;;;;;;;9.00;43.63;101146.38;5043002;28;20037;-67
2021/05/24 00:55:45;;;;;;;5.10;1.33;;;;;;;8.82;44.20;101145.16;5043107;28;20045;-66
2021/05/24 00:58:11;;;;;;;1.63;0.98;;;;;;;8.96;43.72;101145.63;5041002;28;20036;-71
2021/05/24 01:00:38;;;;;;;1.77;1.13;;;;;;;8.96;43.84;101135.19;5043420;28;20041;-71
2021/05/24 01:03:06;;;;;;;3.45;1.00;;;;;;;8.85;43.89;101139.88;5042358;28;20094;-69
2021/05/24 01:05:32;;;;;;;3.47;0.90;;;;;;;8.88;44.01;101139.78;5043258;28;20033;-70
2021/05/24 01:07:58;;;;;;;7.50;1.25;;;;;;;8.92;43.59;101138.78;5042809;28;20454;-72
2021/05/24 01:10:24;;;;;;;1.67;0.70;;;;;;;8.97;43.86;101129.06;5043807;28;20037;-71
2021/05/24 01:12:49;;;;;;;1.85;0.73;;;;;;;8.91;43.50;101129.25;5042442;28;20521;-71
2021/05/24 01:15:15;;;;;;;2.08;0.80;;;;;;;8.94;43.91;101123.97;5041600;28;20025;-69
2021/05/24 01:17:41;;;;;;;2.60;1.30;;;;;;;8.94;44.07;101113.53;5042226;28;20416;-68
2021/05/24 01:20:12;;;;;;;6.43;0.70;;;;;;;8.82;44.36;101113.88;5041925;28;20086;-69
2021/05/24 01:22:41;;;;;;;2.83;0.93;;;;;;;8.91;44.03;101118.81;5043152;28;20171;-70
2021/05/24 01:25:07;;;;;;;6.45;0.43;;;;;;;8.94;44.13;101116.13;5043129;28;20540;-69
2021/05/24 01:27:33;;;;;;;7.22;1.02;;;;;;;8.92;44.52;101114.47;5042804;28;20033;-69
2021/05/24 01:30:00;;;;;;;2.85;1.00;;;;;;;8.87;44.46;101109.38;5042248;28;20036;-70
2021/05/24 01:32:25;;;;;;;2.75;1.00;;;;;;;8.85;44.40;101103.38;5041605;28;20025;-67
2021/05/24 01:34:51;;;;;;;1.00;0.50;;;;;;;8.73;44.62;101098.50;5041298;28;20552;-66
2021/05/24 01:37:17;;;;;;;4.97;1.02;;;;;;;8.83;44.45;101093.88;5042986;28;20056;-64
2021/05/24 01:39:42;;;;;;;5.03;1.00;;;;;;;8.76;44.45;101093.19;5042126;28;20028;-65
2021/05/24 01:42:07;;;;;;;1.88;0.40;;;;;;;8.71;44.13;101087.28;5042807;28;20024;-66
2021/05/24 01:44:36;;;;;;;2.92;1.58;;;;;;;8.55;44.69;101094.63;5042352;28;20663;-66
2021/05/24 01:47:02;;;;;;;4.53;0.70;;;;;;;8.88;44.31;101097.22;5061448;28;20060;-67
2021/05/24 01:49:30;;;;;;;1.75;0.60;;;;;;;8.97;44.14;101087.34;5046405;28;20277;-67
2021/05/24 01:51:56;;;;;;;3.40;0.63;;;;;;;8.95;44.34;101096.13;5047457;28;20415;-66
2021/05/24 01:54:21;;;;;;;2.78;0.77;;;;;;;9.05;43.70;101087.13;5046410;28;20033;-66
2021/05/24 01:56:47;;;;;;;1.13;0.70;;;;;;;8.97;44.17;101082.16;5044856;28;20028;-66
2021/05/24 01:59:12;;;;;;;2.97;0.60;;;;;;;8.72;44.92;101083.78;5045087;28;20501;-67
2021/05/24 02:01:38;;;;;;;2.75;0.60;;;;;;;8.85;43.99;101082.53;5044254;28;20114;-67
2021/05/24 02:04:04;;;;;;;6.95;1.00;;;;;;;8.74;44.38;101084.59;5044098;28;20408;-68
2021/05/24 02:06:29;;;;;;;2.45;0.85;;;;;;;8.90;44.38;101075.41;5042289;28;20051;-68
2021/05/24 02:08:55;;;;;;;3.55;0.70;;;;;;;8.91;44.29;101077.09;5044589;28;20067;-67
2021/05/24 02:11:20;;;;;;;4.70;0.63;;;;;;;8.81;44.72;101080.91;5042890;28;20033;-67
2021/05/24 02:13:46;;;;;;;2.70;0.60;;;;;;;8.93;44.28;101074.47;5045015;28;20040;-68
2021/05/24 02:16:12;;;;;;;1.98;0.63;;;;;;;8.76;45.10;101077.56;5044210;28;20032;-66
2021/05/24 02:18:38;;;;;;;1.55;0.88;;;;;;;8.77;45.15;101069.69;5043086;28;20098;-65
2021/05/24 02:21:06;;;;;;;3.25;1.45;;;;;;;8.89;45.03;101065.03;5042624;28;20044;-66
2021/05/24 02:23:32;;;;;;;2.08;0.82;;;;;;;8.85;45.23;101066.88;5042361;28;20072;-65
2021/05/24 02:25:57;;;;;;;7.05;0.90;;;;;;;8.74;44.48;101055.94;5043498;28;20563;-67
2021/05/24 02:28:23;;;;;;;3.45;0.70;;;;;;;8.85;45.09;101046.03;5042949;28;20040;-68
2021/05/24 02:30:49;;;;;;;4.07;0.80;;;;;;;9.00;44.39;101039.47;5044295;28;20401;-68
2021/05/24 02:33:14;;;;;;;1.90;0.80;;;;;;;8.94;44.76;101048.34;5043256;28;20113;-68
2021/05/24 02:35:40;;;;;;;3.38;0.88;;;;;;;9.00;45.01;101039.47;5043315;28;20207;-68
2021/05/24 02:38:06;;;;;;;4.38;0.85;;;;;;;9.01;44.68;101040.31;5043113;28;20441;-70
2021/05/24 02:40:32;;;;;;;7.05;0.80;;;;;;;9.12;44.88;101048.66;5044583;28;20498;-70
2021/05/24 02:42:58;;;;;;;1.67;0.60;;;;;;;9.08;45.17;101052.31;5043380;28;20033;-69
2021/05/24 02:45:24;;;;;;;2.05;0.55;;;;;;;9.11;45.00;101046.97;5044627;28;20067;-71
2021/05/24 02:47:50;;;;;;;1.80;0.93;;;;;;;9.14;44.68;101041.66;5043947;28;20112;-70
2021/05/24 02:50:20;;;;;;;4.53;0.60;;;;;;;9.10;44.55;101045.28;5044066;28;20025;-69
2021/05/24 02:52:45;;;;;;;2.42;1.05;;;;;;;9.15;44.90;101032.94;5042207;28;20528;-69
2021/05/24 02:55:11;;;;;;;3.22;0.75;;;;;;;9.11;45.15;101031.34;5044630;28;20029;-69
2021/05/24 02:57:37;;;;;;;2.83;1.00;;;;;;;9.11;45.11;101031.34;5042072;28;20556;-70
2021/05/24 03:00:05;;;;;;;2.80;0.60;;;;;;;9.10;45.25;101032.25;5044445;28;20127;-70
2021/05/24 03:02:31;;;;;;;2.55;0.75;;;;;;;9.03;45.83;101033.31;5043113;28;20098;-70
2021/05/24 03:04:56;;;;;;;1.80;0.60;;;;;;;8.68;47.04;101030.84;5043785;28;20512;-70
2021/05/24 03:07:22;;;;;;;3.75;0.68;;;;;;;8.52;48.32;101043.47;5044015;28;20068;-71
2021/05/24 03:09:47;;;;;;;4.70;1.00;;;;;;;8.35;48.79;101040.50;5043674;28;20025;-71
2021/05/24 03:12:13;;;;;;;5.15;1.08;;;;;;;8.18;49.20;101019.28;5042611;28;20083;-71
2021/05/24 03:14:39;;;;;;;2.00;0.70;;;;;;;8.24;49.23;101009.53;5043520;28;20029;-71
2021/05/24 03:17:05;;;;;;;4.32;0.80;;;;;;;8.25;49.44;101013.88;5042580;28;20478;-71
2021/05/24 03:19:30;;;;;;;4.18;1.45;;;;;;;8.27;49.72;101011.19;5043442;28;20067;-70
2021/05/24 03:21:55;;;;;;;7.85;0.95;;;;;;;8.25;49.62;101006.06;5042470;28;20029;-70
2021/05/24 03:24:21;;;;;;;4.32;0.93;;;;;;;8.24;49.58;101006.09;5036175;28;20029;-71
2021/05/24 03:26:46;;;;;;;1.98;1.33;;;;;;;8.14;49.42;101006.34;5043157;28;20064;-70
2021/05/24 03:29:12;;;;;;;1.95;0.65;;;;;;;8.24;49.56;101003.47;5025838;28;20033;-68
2021/05/24 03:31:37;;;;;;;4.57;0.90;;;;;;;8.26;49.71;100999.94;5040965;28;20588;-68
2021/05/24 03:34:03;;;;;;;3.25;1.02;;;;;;;8.36;49.33;101006.59;5024960;28;20061;-68
2021/05/24 03:36:28;;;;;;;4.35;1.52;;;;;;;8.35;48.99;101006.63;5042217;28;20079;-68
2021/05/24 03:38:54;;;;;;;5.18;1.30;;;;;;;8.38;49.45;101009.13;5043624;28;20037;-69
2021/05/24 03:41:19;;;;;;;3.40;0.95;;;;;;;8.43;49.00;101009.88;5042091;28;20040;-68
2021/05/24 03:43:47;;;;;;;3.95;0.93;;;;;;;8.43;49.70;101015.09;5043344;28;20044;-68
2021/05/24 03:46:13;;;;;;;1.60;0.70;;;;;;;8.61;49.40;101016.31;5042334;28;20032;-66
2021/05/24 03:48:38;;;;;;;1.80;1.00;;;;;;;8.65;49.33;101017.06;5042522;28;20049;-68
2021/05/24 03:51:05;;;;;;;6.38;1.10;;;;;;;8.64;49.64;101024.03;5042304;28;20206;-70
2021/05/24 03:53:30;;;;;;;7.63;1.30;;;;;;;8.71;49.80;101022.13;5043546;28;20040;-70
2021/05/24 03:55:56;;;;;;;3.45;0.95;;;;;;;8.65;49.94;101023.13;5044201;28;20466;-70
2021/05/24 03:58:21;;;;;;;4.75;1.23;;;;;;;8.65;50.01;101011.84;5042575;28;20029;-71
2021/05/24 04:00:47;;;;;;;3.50;0.98;;;;;;;8.66;50.12;101008.34;5043249;28;20094;-70
2021/05/24 04:03:13;;;;;;;2.58;0.98;;;;;;;8.50;51.24;101015.78;5041221;28;20123;-70
2021/05/24 04:05:40;;;;;;;3.40;1.48;;;;;;;8.60;50.99;101004.16;5041466;28;20059;-70
2021/05/24 04:08:07;;;;;;;2.22;1.15;;;;;;;8.68;50.79;100990.91;5039985;28;20032;-71
2021/05/24 04:10:36;;;;;;;1.42;1.00;;;;;;;8.70;50.92;100997.78;5041030;28;20082;-71
2021/05/24 04:13:02;;;;;;;1.25;0.82;;;;;;;8.70;50.76;100994.34;5039221;28;20044;-71
2021/05/24 04:15:27;;;;;;;2.63;1.10;;;;;;;8.84;50.61;100989.56;5042486;28;20490;-72
2021/05/24 04:17:56;;;;;;;2.33;1.10;;;;;;;8.82;50.96;100993.97;5040397;28;20040;-72
2021/05/24 04:20:24;;;;;;;2.20;1.10;;;;;;;8.85;51.16;100990.41;5042817;28;20032;-72
2021/05/24 04:22:50;;;;;;;5.65;1.45;;;;;;;8.90;50.84;100989.41;5041455;28;20041;-71
2021/05/24 04:25:15;;;;;;;3.05;0.93;;;;;;;9.02;50.69;100984.69;5041154;28;20037;-69
2021/05/24 04:27:41;;;;;;;8.20;7.50;;;;;;;9.08;50.55;100987.13;5040280;28;20501;-70
2021/05/24 04:30:10;;;;;;;4.70;1.20;;;;;;;9.06;50.39;100994.13;5042529;28;20025;-72
2021/05/24 04:32:36;;;;;;;1.05;0.73;;;;;;;9.04;50.92;100994.16;5039762;28;20053;-71
2021/05/24 04:35:02;;;;;;;7.82;1.02;;;;;;;8.99;50.14;100990.88;5040195;28;20067;-71
2021/05/24 04:37:27;;;;;;;2.70;0.73;;;;;;;8.91;49.53;100992.84;5042005;28;20028;-66
2021/05/24 04:39:52;;;;;;;1.48;0.70;;;;;;;8.93;49.33;100981.47;5040426;28;20064;-70
2021/05/24 04:42:20;;;;;;;4.13;1.05;;;;;;;8.93;49.25;100976.25;5042401;28;20051;-70
2021/05/24 04:44:46;;;;;;;1.30;0.80;;;;;;;8.98;49.27;100979.59;5040833;28;20045;-71
2021/05/24 04:47:11;;;;;;;3.35;0.93;;;;;;;9.02;48.94;100974.25;5023619;28;20037;-70
2021/05/24 04:49:37;;;;;;;4.10;1.08;;;;;;;9.05;48.82;100977.59;5039367;28;20044;-71
2021/05/24 04:52:03;;;;;;;2.50;1.10;;;;;;;9.10;48.86;100962.69;5040821;28;20036;-69
2021/05/24 04:54:28;;;;;;;2.90;1.27;;;;;;;9.16;48.46;100956.41;5041358;28;20064;-69
2021/05/24 04:56:54;;;;;;;4.45;0.65;;;;;;;9.20;48.32;100963.22;5042390;28;20048;-68
2021/05/24 04:59:20;;;;;;;2.35;1.00;;;;;;;9.21;48.55;100962.34;5040773;28;20033;-67
2021/05/24 05:01:49;;;;;;;4.93;0.70;;;;;;;9.15;48.44;100954.72;5040280;28;20036;-68
2021/05/24 05:04:18;;;;;;;1.92;0.68;;;;;;;9.29;48.19;100952.50;5040880;28;20051;-70
2021/05/24 05:06:43;;;;;;;2.28;1.20;;;;;;;9.29;47.59;100947.28;5041549;28;20041;-69
2021/05/24 05:09:09;;;;;;;10.57;1.60;;;;;;;9.35;47.49;100941.84;5041423;28;20400;-72
2021/05/24 05:11:35;;;;;;;4.25;1.15;;;;;;;9.27;47.42;100943.88;5039521;28;20041;-72
2021/05/24 05:14:01;;;;;;;1.80;1.20;;;;;;;9.52;47.42;100953.47;5038559;28;20436;-72
2021/05/24 05:16:26;;;;;;;1.83;0.75;;;;;;;9.64;47.58;100945.22;5040641;28;20032;-70
2021/05/24 05:18:52;;;;;;;2.90;0.38;;;;;;;9.64;47.50;100941.78;5041303;28;20401;-71
2021/05/24 05:21:17;;;;;;;2.75;0.65;;;;;;;9.54;47.71;100936.00;5040632;28;20405;-71
2021/05/24 05:23:42;;;;;;;5.20;0.70;;;;;;;9.66;47.57;100939.97;5040162;28;20071;-72
2021/05/24 05:26:08;;;;;;;2.47;0.75;;;;;;;9.60;47.83;100933.19;5040702;28;20106;-71
2021/05/24 05:28:34;;;;;;;1.55;0.70;;;;;;;9.77;47.42;100940.44;5041333;28;20041;-70
2021/05/24 05:30:59;;;;;;;2.30;0.93;;;;;;;9.86;46.85;100926.25;5040077;28;20378;-72
2021/05/24 05:33:25;;;;;;;1.55;0.65;;;;;;;9.78;46.70;100944.75;5041114;28;20043;-71
2021/05/24 05:35:54;;;;;;;2.22;0.63;;;;;;;9.81;46.78;100918.53;5040329;28;20047;-71
2021/05/24 05:38:19;;;;;;;3.42;0.55;;;;;;;10.07;46.10;100925.44;5055543;28;20045;-72
2021/05/24 05:40:50;;;;;;;1.83;0.60;;;;;;;10.20;46.15;100924.06;5041694;28;20049;-71
2021/05/24 05:43:16;;;;;;;2.30;0.55;;;;;;;10.27;45.67;100922.06;5040374;28;20067;-70
2021/05/24 05:45:42;;;;;;;1.88;0.60;;;;;;;10.23;45.67;100915.25;5038725;28;20062;-67
2021/05/24 05:48:08;;;;;;;1.08;0.43;;;;;;;10.18;45.39;100917.22;5039934;28;20032;-68
2021/05/24 05:50:34;;;;;;;4.43;0.70;;;;;;;9.84;46.48;100920.22;5041008;28;20045;-71
2021/05/24 05:53:00;;;;;;;1.85;0.75;;;;;;;10.07;46.02;100912.38;5041365;28;20025;-69
2021/05/24 05:55:25;;;;;;;2.95;0.40;;;;;;;10.06;46.32;100912.44;5029753;28;20025;-71
2021/05/24 05:57:51;;;;;;;1.30;0.50;;;;;;;9.96;46.32;100902.31;5040932;28;20067;-70
2021/05/24 06:00:17;;;;;;;0.68;0.30;;;;;;;10.19;45.33;100904.09;5041488;28;20068;-70
2021/05/24 06:02:43;;;;;;;1.48;0.50;;;;;;;10.35;45.80;100908.75;5031646;23;20149;-68
2021/05/24 06:05:10;;;;;;;2.00;0.60;;;;;;;10.05;45.49;100908.97;5001214;28;20077;-70
2021/05/24 06:07:35;;;;;;;1.70;0.30;;;;;;;10.50;45.41;100907.28;4998955;28;20195;-68
2021/05/24 06:10:01;;;;;;;2.30;0.88;;;;;;;10.48;44.80;100889.06;4990237;28;20038;-68
2021/05/24 06:12:26;;;;;;;2.05;0.25;;;;;;;10.41;44.92;100901.50;4994106;28;20045;-68
2021/05/24 06:14:52;;;;;;;3.38;0.45;;;;;;;10.76;44.60;100895.78;4996709;28;20033;-68
2021/05/24 06:17:17;;;;;;;2.33;0.25;;;;;;;10.93;43.74;100895.13;5000242;28;20030;-69
2021/05/24 06:19:42;;;;;;;3.03;0.30;;;;;;;10.92;43.95;100893.44;4991346;28;20026;-68
2021/05/24 06:22:08;;;;;;;0.73;0.35;;;;;;;10.94;43.81;100897.69;4994886;28;20573;-68
2021/05/24 06:24:33;;;;;;;0.63;0.20;;;;;;;11.13;42.93;100896.91;4986042;28;20938;-68
2021/05/24 06:26:59;;;;;;;1.27;0.20;;;;;;;11.24;43.15;100905.16;4992473;28;20105;-69
2021/05/24 06:29:25;;;;;;;1.50;0.32;;;;;;;11.27;42.39;100899.81;4995620;28;20112;-68
2021/05/24 06:31:53;;;;;;;5.60;0.60;;;;;;;11.58;42.77;100903.72;4996944;28;20030;-68
2021/05/24 06:34:19;;;;;;;5.75;0.35;;;;;;;11.85;42.45;100896.44;4998801;28;20333;-68
2021/05/24 06:36:44;;;;;;;2.38;0.35;;;;;;;12.05;41.36;100887.69;4998611;28;20122;-67
2021/05/24 06:39:11;;;;;;;0.70;0.20;;;;;;;12.69;40.12;100884.66;5005253;28;20120;-67
2021/05/24 06:41:37;;;;;;;2.05;0.20;;;;;;;13.39;38.40;100887.28;4995921;28;20438;-68
2021/05/24 06:44:02;;;;;;;0.60;0.10;;;;;;;13.77;38.10;100881.84;4995982;28;20036;-68
2021/05/24 06:46:28;;;;;;;3.45;0.20;;;;;;;13.20;38.03;100894.41;4996530;28;20030;-68
2021/05/24 06:48:53;;;;;;;1.77;0.10;;;;;;;14.73;36.18;100880.91;4998801;28;20121;-68
2021/05/24 06:51:19;;;;;;;0.30;0.10;;;;;;;14.72;36.02;100879.25;4998185;28;20552;-68
2021/05/24 06:53:45;;;;;;;0.47;0.10;;;;;;;13.19;38.35;100875.19;5014570;28;21256;-68
2021/05/24 06:56:11;;;;;;;1.15;0.10;;;;;;;13.27;38.73;100880.03;4999748;28;20073;-67
2021/05/24 06:58:36;;;;;;;0.80;0.20;;;;;;;12.86;39.76;100878.56;5008900;28;20163;-67
2021/05/24 07:01:02;;;;;;;1.27;0.10;;;;;;;12.75;39.70;100877.41;4998598;28;20133;-68
2021/05/24 07:03:27;;;;;;;0.40;0.10;;;;;;;12.60;40.12;100871.97;4996369;28;20038;-67
2021/05/24 07:05:53;;;;;;;1.52;0.15;;;;;;;12.64;40.76;100876.13;4996528;28;20068;-67
2021/05/24 07:08:19;;;;;;;0.63;0.20;;;;;;;13.06;39.63;100872.34;4993049;28;20043;-67
2021/05/24 07:10:44;;;;;;;0.65;0.10;;;;;;;13.30;38.57;100879.91;4993987;28;20048;-67
2021/05/24 07:13:10;;;;;;;1.67;0.10;;;;;;;13.01;39.66;100879.59;4997859;28;20070;-67
2021/05/24 07:15:36;;;;;;;1.60;0.20;;;;;;;13.03;38.67;100879.53;4998710;28;20038;-68
2021/05/24 07:18:01;;;;;;;0.93;0.10;;;;;;;12.84;39.42;100871.72;4995290;28;20592;-67
2021/05/24 07:20:27;;;;;;;2.95;0.10;;;;;;;12.89;39.86;100880.19;4997772;28;20411;-68
2021/05/24 07:22:52;;;;;;;0.98;0.35;;;;;;;12.95;39.62;100865.94;4994034;28;20584;-66
2021/05/24 07:25:18;;;;;;;1.42;0.20;;;;;;;12.64;39.41;100868.25;4998524;28;20586;-68
2021/05/24 07:27:43;;;;;;;0.52;0.15;;;;;;;12.83;39.42;100865.63;5000381;28;20057;-67
2021/05/24 07:30:10;;;;;;;2.83;0.13;;;;;;;12.96;39.20;100871.13;4995957;28;20107;-67
2021/05/24 07:32:35;;;;;;;1.00;0.10;;;;;;;12.77;39.45;100871.16;5009996;28;20038;-67
2021/05/24 07:35:01;;;;;;;3.00;0.20;;;;;;;13.01;39.83;100869.09;4997868;28;20122;-68
2021/05/24 07:37:26;;;;;;;1.88;0.10;;;;;;;12.82;39.55;100873.56;4994467;28;20093;-69
2021/05/24 07:39:52;;;;;;;2.05;1.15;;;;;;;12.99;39.85;100875.34;5011728;28;20088;-68
2021/05/24 07:42:18;;;;;;;1.50;0.73;;;;;;;12.82;40.55;100873.56;4997116;28;20039;-68
2021/05/24 07:44:43;;;;;;;2.13;0.32;;;;;;;13.46;39.17;100867.66;4994162;28;20688;-68
2021/05/24 07:47:09;;;;;;;1.42;0.15;;;;;;;13.29;38.75;100865.94;5002000;28;20077;-68
2021/05/24 07:49:34;;;;;;;0.65;0.30;;;;;;;13.94;37.60;100850.25;4994864;28;20125;-68
2021/05/24 07:52:00;;;;;;;0.40;0.10;;;;;;;14.01;37.72;100850.75;4996524;28;20446;-68
2021/05/24 07:54:26;;;;;;;1.02;0.15;;;;;;;14.30;38.21;100850.91;4995627;28;20061;-67
2021/05/24 07:56:51;;;;;;;0.73;0.10;;;;;;;14.31;37.71;100836.84;4994824;28;20092;-68
2021/05/24 07:59:17;;;;;;;1.15;0.20;;;;;;;14.22;37.43;100837.38;4994989;28;20038;-68
2021/05/24 08:01:42;;;;;;;0.50;0.10;;;;;;;14.31;36.93;100844.72;5011438;28;20041;-68
2021/05/24 08:04:09;;;;;;;0.22;0.10;;;;;;;14.17;37.27;100834.16;4995481;28;20066;-68
2021/05/24 08:06:34;;;;;;;1.55;0.10;;;;;;;14.15;37.52;100842.94;4995351;28;20611;-68
2021/05/24 08:09:00;;;;;;;1.10;0.20;;;;;;;14.54;37.16;100840.81;4999530;28;20093;-68
2021/05/24 08:11:25;;;;;;;1.00;0.10;;;;;;;14.71;37.54;100843.31;4980470;28;20368;-70
2021/05/24 08:13:53;;;;;;;2.97;0.15;;;;;;;14.65;36.43;100846.31;4994372;28;20077;-68
2021/05/24 08:16:19;;;;;;;5.13;0.30;;;;;;;14.87;37.44;100845.06;4995506;28;20039;-68
2021/05/24 08:18:44;;;;;;;0.98;0.10;;;;;;;14.84;36.51;100847.88;4993335;28;20034;-68
2021/05/24 08:21:10;;;;;;;1.85;0.10;;;;;;;14.38;37.29;100832.91;4996938;28;20084;-68
2021/05/24 08:23:36;;;;;;;2.17;0.55;;;;;;;14.68;36.75;100840.00;5008141;28;20121;-68
2021/05/24 08:26:01;;;;;;;5.80;1.17;;;;;;;14.68;36.74;100840.00;4997473;28;20492;-70
2021/05/24 08:28:27;;;;;;;0.80;0.10;;;;;;;14.41;37.39;100831.94;4995226;28;20096;-69
2021/05/24 08:30:54;;;;;;;0.32;0.10;;;;;;;14.29;37.53;100823.78;5000397;28;20030;-68
2021/05/24 08:33:21;;;;;;;1.65;0.25;;;;;;;14.27;37.15;100833.53;4992420;28;20030;-67
2021/05/24 08:35:49;;;;;;;3.30;0.85;;;;;;;14.39;37.60;100826.75;4995435;28;20044;-68
2021/05/24 08:38:14;;;;;;;1.55;0.20;;;;;;;14.90;37.07;100819.44;4997039;28;20053;-68
2021/05/24 08:40:42;;;;;;;1.38;0.20;;;;;;;15.08;36.25;100817.50;4996114;28;20030;-67
2021/05/24 08:43:09;;;;;;;1.88;0.10;;;;;;;15.07;36.09;100826.31;4996264;28;20509;-69
2021/05/24 08:45:38;;;;;;;3.22;0.50;;;;;;;15.24;36.42;100816.56;4995278;28;20117;-67
2021/05/24 08:48:05;;;;;;;1.27;0.20;;;;;;;15.45;35.53;100810.00;4995602;28;20129;-70
2021/05/24 08:50:31;;;;;;;2.28;0.10;;;;;;;15.74;35.93;100799.44;4995549;28;20173;-68
2021/05/24 08:52:57;;;;;;;3.05;0.90;;;;;;;16.26;35.75;100796.09;4995523;28;20454;-68
2021/05/24 08:55:22;;;;;;;3.95;0.10;;;;;;;15.92;34.69;100798.25;4995870;28;20048;-68
2021/05/24 08:57:48;;;;;;;1.10;0.20;;;;;;;15.91;34.51;100795.75;4994173;28;20048;-67
2021/05/24 09:00:16;;;;;;;0.98;0.10;;;;;;;16.15;35.54;100794.19;5008802;28;20076;-68
2021/05/24 09:02:50;;;;;;;1.02;0.10;;;;;;;16.57;33.60;100794.09;4994781;28;20042;-68
2021/05/24 09:05:16;;;;;;;0.57;0.10;;;;;;;16.40;33.98;100793.44;4993260;28;20088;-68
2021/05/24 09:07:52;;;;;;;0.85;0.10;;;;;;;16.95;33.64;100788.03;4994656;28;20027;-68
2021/05/24 09:10:20;;;;;;;1.70;0.30;;;;;;;16.65;33.45;100791.78;4990762;28;20095;-67
2021/05/24 09:12:46;;;;;;;1.67;0.13;;;;;;;16.41;33.93;100778.44;4994323;28;20598;-68
2021/05/24 09:15:15;;;;;;;2.78;0.43;;;;;;;16.83;33.25;100780.03;4997033;28;20041;-70
2021/05/24 09:17:54;;;;;;;2.28;0.10;;;;;;;16.76;33.42;100789.31;5008336;28;20061;-68
2021/05/24 09:20:20;;;;;;;1.08;0.30;;;;;;;16.06;34.58;100780.75;4993468;28;20029;-67
2021/05/24 09:23:06;;;;;;;2.95;0.20;;;;;;;15.70;34.89;100777.69;4983270;28;20573;-68
2021/05/24 09:25:45;;;;;;;1.75;0.20;;;;;;;16.40;34.55;100777.59;4992636;28;20038;-68
2021/05/24 09:28:26;;;;;;;3.47;0.20;;;;;;;16.79;33.40;100773.25;4979405;28;20030;-69
2021/05/24 09:30:57;;;;;;;1.65;0.10;;;;;;;16.60;33.76;100767.53;4991532;28;20455;-69
2021/05/24 09:33:23;;;;;;;0.30;0.00;;;;;;;17.31;32.84;100768.78;4989356;28;20117;-69
2021/05/24 09:35:53;;;;;;;2.05;0.50;;;;;;;17.46;32.60;100769.53;4989490;28;20108;-68
2021/05/24 09:38:21;;;;;;;0.22;0.10;;;;;;;18.00;32.80;100755.94;4990523;28;20480;-68
2021/05/24 09:40:59;;;;;;;2.35;0.10;;;;;;;17.33;32.57;100772.19;4991763;28;20180;-68
2021/05/24 09:43:37;;;;;;;0.25;0.10;;;;;;;17.56;33.58;100773.25;5005754;28;20044;-68
2021/05/24 09:46:18;;;;;;;1.75;0.13;;;;;;;17.32;33.33;100759.09;4996938;28;20034;-68
2021/05/24 09:48:46;;;;;;;2.53;0.10;;;;;;;17.64;33.21;100765.59;4990374;28;20068;-68
2021/05/24 09:51:14;;;;;;;2.25;0.10;;;;;;;17.32;33.33;100764.38;4992184;28;20568;-68
2021/05/24 09:53:41;;;;;;;6.93;0.20;;;;;;;17.62;31.46;100758.72;5010278;28;20065;-68
2021/05/24 09:56:15;;;;;;;0.43;0.10;;;;;;;17.42;30.35;100754.84;4999121;28;20037;-69
2021/05/24 09:58:41;;;;;;;0.40;0.10;;;;;;;17.95;30.61;100752.81;4989903;28;21176;-68
2021/05/24 10:01:16;;;;;;;0.30;0.00;;;;;;;18.14;30.17;100747.00;4995876;28;20085;-69
2021/05/24 10:03:44;;;;;;;2.95;0.15;;;;;;;18.13;29.80;100747.13;4997119;28;20051;-68
2021/05/24 10:06:10;;;;;;;1.13;0.05;;;;;;;17.62;29.12;100735.78;5000984;28;20636;-69
2021/05/24 10:08:36;;;;;;;0.82;0.10;;;;;;;17.48;29.97;100741.22;5004759;28;20460;-70
2021/05/24 10:11:03;;;;;;;1.25;0.77;;;;;;;18.57;29.53;100733.22;5000991;28;20041;-68
2021/05/24 10:13:29;;;;;;;1.40;0.40;;;;;;;18.77;28.57;100737.00;5000732;28;20472;-68
2021/05/24 10:16:02;;;;;;;0.22;0.00;;;;;;;18.47;29.16;100733.09;4999156;28;20034;-68
2021/05/24 10:18:30;;;;;;;0.20;0.05;;;;;;;18.24;28.04;100718.94;5010379;28;20133;-67
2021/05/24 10:20:58;;;;;;;0.82;0.20;;;;;;;18.75;28.21;100723.03;4998435;28;20102;-67
2021/05/24 10:23:25;;;;;;;1.40;0.10;;;;;;;18.17;29.90;100724.78;4996145;28;20057;-68
2021/05/24 10:25:52;;;;;;;1.20;0.47;;;;;;;18.01;29.95;100715.34;5014062;28;20270;-67
2021/05/24 10:28:21;;;;;;;1.92;0.20;;;;;;;18.03;29.61;100731.09;4996231;28;20034;-67
2021/05/24 10:30:47;;;;;;;5.65;0.20;;;;;;;17.78;29.13;100719.69;5001491;28;20045;-71
2021/05/24 10:33:14;;;;;;;0.30;0.00;;;;;;;16.96;30.08;100716.66;4994764;28;20480;-68
2021/05/24 10:35:43;;;;;;;4.03;0.20;;;;;;;16.91;31.67;100723.22;4978629;28;20518;-67
2021/05/24 10:38:32;;;;;;;2.72;0.15;;;;;;;16.80;31.99;100716.91;4992932;28;20058;-68
2021/05/24 10:41:04;;;;;;;1.90;0.13;;;;;;;16.23;32.41;100711.94;5011933;28;20026;-68
2021/05/24 10:43:56;;;;;;;3.05;0.28;;;;;;;15.92;35.39;100710.44;4993441;28;20041;-69
2021/05/24 10:46:28;;;;;;;1.20;0.10;;;;;;;14.99;35.45;100723.25;4998171;28;20056;-67
2021/05/24 10:48:54;;;;;;;0.95;0.10;;;;;;;15.00;37.17;100719.72;4992315;28;20041;-68
2021/05/24 10:51:20;;;;;;;1.02;0.10;;;;;;;14.76;38.38;100716.78;4981144;28;20088;-68
2021/05/24 10:53:49;;;;;;;0.40;0.10;;;;;;;14.74;38.00;100718.66;5008570;28;20042;-67
2021/05/24 10:56:16;;;;;;;3.35;1.27;;;;;;;;;;4997295;28;20038;-68
2021/05/24 10:58:42;;;;;;;3.40;0.40;;;;;;;14.89;37.54;100715.09;4992943;28;20045;-69
2021/05/24 11:01:07;;;;;;;4.22;0.10;;;;;;;14.67;37.81;100707.66;4993710;28;20038;-68
2021/05/24 11:03:33;;;;;;;0.70;0.10;;;;;;;15.31;37.00;100708.16;5007961;28;20038;-67
2021/05/24 11:06:18;;;;;;;2.50;0.20;;;;;;;15.75;36.76;100700.97;4995779;28;20048;-67
2021/05/24 11:09:05;;;;;;;0.70;0.10;;;;;;;16.18;36.25;100699.06;4992947;28;20435;-68
2021/05/24 11:11:35;;;;;;;4.15;1.13;;;;;;;16.02;35.58;100697.53;4990784;28;20038;-67
2021/05/24 11:14:01;;;;;;;0.90;0.47;;;;;;;16.07;35.15;100703.38;5006605;28;20104;-68
2021/05/24 11:16:28;;;;;;;0.70;0.10;;;;;;;16.11;36.15;100699.59;4976284;28;20046;-68
2021/05/24 11:19:09;;;;;;;0.57;0.10;;;;;;;15.93;36.06;100698.94;4995328;28;20124;-68
2021/05/24 11:21:39;;;;;;;0.65;0.10;;;;;;;15.65;36.21;100692.00;4994613;28;20042;-67
2021/05/24 11:27:11;;;;;;;3.15;0.10;;;;;;;14.72;38.16;100704.75;4991809;28;20027;-68
2021/05/24 11:29:38;;;;;;;1.48;0.30;;;;;;;15.00;37.84;100716.25;4989679;28;20121;-68
2021/05/24 11:32:25;;;;;;;0.55;0.17;;;;;;;15.17;38.33;100711.63;4997864;28;20030;-68